sensor_id;sensor_type;location;lat;lon;timestamp;P1;durP1;ratioP1;P2;durP2;ratioP2
35757;SDS011;21879;50.110;18.900;2023-08-12T00:07:38;11.30;;;9.60;;
35757;SDS011;21879;50.110;18.900;2023-08-12T00:18:07;11.20;;;9.10;;
35757;SDS011;21879;50.110;18.900;2023-08-12T00:28:34;9.30;;;7.30;;
35757;SDS011;21879;50.110;18.900;2023-08-12T00:39:02;14.00;;;8.50;;
35757;SDS011;21879;50.110;18.900;2023-08-12T00:49:30;8.20;;;6.50;;
35757;SDS011;21879;50.110;18.900;2023-08-12T00:59:59;7.40;;;5.60;;
35757;SDS011;21879;50.110;18.900;2023-08-12T01:10:29;11.20;;;7.50;;
35757;SDS011;21879;50.110;18.900;2023-08-12T01:21:00;9.30;;;7.00;;
35757;SDS011;21879;50.110;18.900;2023-08-12T01:31:30;7.30;;;5.40;;
35757;SDS011;21879;50.110;18.900;2023-08-12T01:42:05;8.10;;;6.70;;
35757;SDS011;21879;50.110;18.900;2023-08-12T01:52:33;7.90;;;5.50;;
35757;SDS011;21879;50.110;18.900;2023-08-12T02:03:01;7.20;;;6.00;;
35757;SDS011;21879;50.110;18.900;2023-08-12T02:13:30;6.20;;;4.70;;
35757;SDS011;21879;50.110;18.900;2023-08-12T02:23:59;8.90;;;7.40;;
35757;SDS011;21879;50.110;18.900;2023-08-12T02:34:26;7.80;;;6.20;;
35757;SDS011;21879;50.110;18.900;2023-08-12T02:44:55;7.40;;;6.40;;
35757;SDS011;21879;50.110;18.900;2023-08-12T02:55:24;9.30;;;6.60;;
35757;SDS011;21879;50.110;18.900;2023-08-12T03:05:52;15.80;;;10.80;;
35757;SDS011;21879;50.110;18.900;2023-08-12T03:16:21;18.10;;;13.30;;
35757;SDS011;21879;50.110;18.900;2023-08-12T03:26:49;17.40;;;11.00;;
35757;SDS011;21879;50.110;18.900;2023-08-12T03:37:17;10.30;;;8.20;;
35757;SDS011;21879;50.110;18.900;2023-08-12T03:47:45;12.20;;;9.70;;
35757;SDS011;21879;50.110;18.900;2023-08-12T03:58:13;12.20;;;9.50;;
35757;SDS011;21879;50.110;18.900;2023-08-12T04:08:41;11.20;;;8.40;;
35757;SDS011;21879;50.110;18.900;2023-08-12T04:19:10;11.90;;;10.20;;
35757;SDS011;21879;50.110;18.900;2023-08-12T04:29:38;11.40;;;8.90;;
35757;SDS011;21879;50.110;18.900;2023-08-12T04:40:08;9.80;;;8.40;;
35757;SDS011;21879;50.110;18.900;2023-08-12T04:50:37;12.10;;;10.80;;
35757;SDS011;21879;50.110;18.900;2023-08-12T05:01:06;11.80;;;9.90;;
35757;SDS011;21879;50.110;18.900;2023-08-12T05:11:34;11.70;;;9.10;;
35757;SDS011;21879;50.110;18.900;2023-08-12T05:22:02;10.90;;;8.90;;
35757;SDS011;21879;50.110;18.900;2023-08-12T05:32:30;12.70;;;10.30;;
35757;SDS011;21879;50.110;18.900;2023-08-12T05:42:58;12.50;;;9.10;;
35757;SDS011;21879;50.110;18.900;2023-08-12T05:53:27;12.60;;;10.60;;
35757;SDS011;21879;50.110;18.900;2023-08-12T06:03:55;13.50;;;8.10;;
35757;SDS011;21879;50.110;18.900;2023-08-12T06:14:24;10.50;;;8.20;;
35757;SDS011;21879;50.110;18.900;2023-08-12T06:24:52;10.00;;;7.50;;
35757;SDS011;21879;50.110;18.900;2023-08-12T06:35:20;11.10;;;7.10;;
35757;SDS011;21879;50.110;18.900;2023-08-12T06:45:48;7.60;;;6.60;;
35757;SDS011;21879;50.110;18.900;2023-08-12T06:56:16;8.80;;;6.60;;
35757;SDS011;21879;50.110;18.900;2023-08-12T07:06:44;6.60;;;5.80;;
35757;SDS011;21879;50.110;18.900;2023-08-12T07:17:12;9.80;;;7.00;;
35757;SDS011;21879;50.110;18.900;2023-08-12T07:27:39;6.90;;;5.70;;
35757;SDS011;21879;50.110;18.900;2023-08-12T07:38:07;6.40;;;5.80;;
35757;SDS011;21879;50.110;18.900;2023-08-12T07:48:35;5.80;;;5.10;;
35757;SDS011;21879;50.110;18.900;2023-08-12T07:59:04;10.00;;;5.50;;
35757;SDS011;21879;50.110;18.900;2023-08-12T08:09:32;6.40;;;4.90;;
35757;SDS011;21879;50.110;18.900;2023-08-12T08:20:00;6.00;;;4.80;;
35757;SDS011;21879;50.110;18.900;2023-08-12T08:30:30;7.40;;;5.40;;
35757;SDS011;21879;50.110;18.900;2023-08-12T08:40:59;4.40;;;3.90;;
35757;SDS011;21879;50.110;18.900;2023-08-12T08:51:28;5.90;;;3.80;;
35757;SDS011;21879;50.110;18.900;2023-08-12T09:01:57;5.10;;;4.00;;
35757;SDS011;21879;50.110;18.900;2023-08-12T09:12:27;4.60;;;3.80;;
35757;SDS011;21879;50.110;18.900;2023-08-12T09:22:56;4.40;;;3.30;;
35757;SDS011;21879;50.110;18.900;2023-08-12T09:33:25;3.80;;;3.30;;
35757;SDS011;21879;50.110;18.900;2023-08-12T09:43:53;4.40;;;2.90;;
35757;SDS011;21879;50.110;18.900;2023-08-12T09:54:23;3.60;;;2.80;;
35757;SDS011;21879;50.110;18.900;2023-08-12T10:04:54;4.10;;;3.70;;
35757;SDS011;21879;50.110;18.900;2023-08-12T10:15:24;4.70;;;2.70;;
35757;SDS011;21879;50.110;18.900;2023-08-12T10:25:54;3.40;;;2.90;;
35757;SDS011;21879;50.110;18.900;2023-08-12T10:36:24;4.20;;;3.10;;
35757;SDS011;21879;50.110;18.900;2023-08-12T10:46:53;3.70;;;3.10;;
35757;SDS011;21879;50.110;18.900;2023-08-12T10:57:35;3.50;;;3.20;;
35757;SDS011;21879;50.110;18.900;2023-08-12T11:08:05;4.50;;;2.70;;
35757;SDS011;21879;50.110;18.900;2023-08-12T11:18:33;4.50;;;3.00;;
35757;SDS011;21879;50.110;18.900;2023-08-12T11:29:01;4.40;;;2.40;;
35757;SDS011;21879;50.110;18.900;2023-08-12T11:39:34;3.90;;;3.40;;
35757;SDS011;21879;50.110;18.900;2023-08-12T11:50:03;3.90;;;3.00;;
35757;SDS011;21879;50.110;18.900;2023-08-12T12:00:34;5.30;;;4.20;;
35757;SDS011;21879;50.110;18.900;2023-08-12T12:11:04;4.00;;;3.20;;
35757;SDS011;21879;50.110;18.900;2023-08-12T12:21:39;4.80;;;2.90;;
35757;SDS011;21879;50.110;18.900;2023-08-12T12:32:07;3.10;;;2.50;;
35757;SDS011;21879;50.110;18.900;2023-08-12T12:42:36;3.20;;;2.50;;
35757;SDS011;21879;50.110;18.900;2023-08-12T12:53:05;5.40;;;3.10;;
35757;SDS011;21879;50.110;18.900;2023-08-12T13:03:32;2.70;;;2.40;;
35757;SDS011;21879;50.110;18.900;2023-08-12T13:14:03;4.10;;;2.70;;
35757;SDS011;21879;50.110;18.900;2023-08-12T13:24:31;3.40;;;2.40;;
35757;SDS011;21879;50.110;18.900;2023-08-12T13:35:00;2.80;;;1.90;;
35757;SDS011;21879;50.110;18.900;2023-08-12T13:45:28;3.20;;;2.60;;
35757;SDS011;21879;50.110;18.900;2023-08-12T13:55:56;3.40;;;2.10;;
35757;SDS011;21879;50.110;18.900;2023-08-12T14:06:24;3.20;;;2.40;;
35757;SDS011;21879;50.110;18.900;2023-08-12T14:16:52;2.60;;;2.30;;
35757;SDS011;21879;50.110;18.900;2023-08-12T14:27:20;2.40;;;2.00;;
35757;SDS011;21879;50.110;18.900;2023-08-12T14:37:48;4.90;;;2.10;;
35757;SDS011;21879;50.110;18.900;2023-08-12T14:48:16;1.80;;;1.70;;
35757;SDS011;21879;50.110;18.900;2023-08-12T14:58:44;3.50;;;2.00;;
35757;SDS011;21879;50.110;18.900;2023-08-12T15:09:13;2.70;;;2.30;;
35757;SDS011;21879;50.110;18.900;2023-08-12T15:19:41;2.30;;;1.40;;
35757;SDS011;21879;50.110;18.900;2023-08-12T15:30:10;2.40;;;2.10;;
35757;SDS011;21879;50.110;18.900;2023-08-12T15:40:38;2.10;;;1.80;;
35757;SDS011;21879;50.110;18.900;2023-08-12T15:51:06;4.00;;;2.80;;
35757;SDS011;21879;50.110;18.900;2023-08-12T16:01:34;3.90;;;3.20;;
35757;SDS011;21879;50.110;18.900;2023-08-12T16:12:03;5.00;;;2.50;;
35757;SDS011;21879;50.110;18.900;2023-08-12T16:22:31;2.90;;;2.20;;
35757;SDS011;21879;50.110;18.900;2023-08-12T16:32:59;4.30;;;2.20;;
35757;SDS011;21879;50.110;18.900;2023-08-12T16:43:27;1.80;;;1.70;;
35757;SDS011;21879;50.110;18.900;2023-08-12T16:53:55;3.60;;;2.60;;
35757;SDS011;21879;50.110;18.900;2023-08-12T17:04:22;4.30;;;2.60;;
35757;SDS011;21879;50.110;18.900;2023-08-12T17:14:50;2.70;;;2.10;;
35757;SDS011;21879;50.110;18.900;2023-08-12T17:25:19;3.10;;;2.40;;
35757;SDS011;21879;50.110;18.900;2023-08-12T17:35:47;5.90;;;2.60;;
35757;SDS011;21879;50.110;18.900;2023-08-12T17:46:15;3.40;;;2.70;;
35757;SDS011;21879;50.110;18.900;2023-08-12T17:56:43;3.90;;;2.60;;
35757;SDS011;21879;50.110;18.900;2023-08-12T18:07:11;2.90;;;2.40;;
35757;SDS011;21879;50.110;18.900;2023-08-12T18:17:39;5.10;;;3.30;;
35757;SDS011;21879;50.110;18.900;2023-08-12T18:28:07;3.30;;;3.00;;
35757;SDS011;21879;50.110;18.900;2023-08-12T18:38:35;4.10;;;3.40;;
35757;SDS011;21879;50.110;18.900;2023-08-12T18:49:04;5.30;;;4.20;;
35757;SDS011;21879;50.110;18.900;2023-08-12T18:59:32;5.30;;;4.10;;
35757;SDS011;21879;50.110;18.900;2023-08-12T19:10:00;5.50;;;4.20;;
35757;SDS011;21879;50.110;18.900;2023-08-12T19:20:29;4.30;;;3.90;;
35757;SDS011;21879;50.110;18.900;2023-08-12T19:30:57;5.10;;;4.10;;
35757;SDS011;21879;50.110;18.900;2023-08-12T19:41:25;4.90;;;3.90;;
35757;SDS011;21879;50.110;18.900;2023-08-12T19:51:54;5.50;;;3.90;;
35757;SDS011;21879;50.110;18.900;2023-08-12T20:02:22;6.90;;;5.70;;
35757;SDS011;21879;50.110;18.900;2023-08-12T20:13:03;8.20;;;6.50;;
35757;SDS011;21879;50.110;18.900;2023-08-12T20:23:31;9.80;;;6.90;;
35757;SDS011;21879;50.110;18.900;2023-08-12T20:33:58;9.10;;;8.20;;
35757;SDS011;21879;50.110;18.900;2023-08-12T20:44:26;9.00;;;7.50;;
35757;SDS011;21879;50.110;18.900;2023-08-12T20:54:54;9.70;;;6.90;;
35757;SDS011;21879;50.110;18.900;2023-08-12T21:05:22;7.60;;;5.30;;
35757;SDS011;21879;50.110;18.900;2023-08-12T21:15:49;10.60;;;8.00;;
35757;SDS011;21879;50.110;18.900;2023-08-12T21:26:17;9.40;;;6.60;;
35757;SDS011;21879;50.110;18.900;2023-08-12T21:36:44;8.20;;;7.30;;
35757;SDS011;21879;50.110;18.900;2023-08-12T21:47:12;8.90;;;7.40;;
35757;SDS011;21879;50.110;18.900;2023-08-12T21:57:39;7.80;;;6.40;;
35757;SDS011;21879;50.110;18.900;2023-08-12T22:08:08;7.30;;;5.20;;
35757;SDS011;21879;50.110;18.900;2023-08-12T22:18:35;7.10;;;5.00;;
35757;SDS011;21879;50.110;18.900;2023-08-12T22:29:06;7.70;;;6.20;;
35757;SDS011;21879;50.110;18.900;2023-08-12T22:39:33;5.70;;;5.00;;
35757;SDS011;21879;50.110;18.900;2023-08-12T22:50:01;10.70;;;8.10;;
35757;SDS011;21879;50.110;18.900;2023-08-12T23:00:31;6.90;;;5.70;;
35757;SDS011;21879;50.110;18.900;2023-08-12T23:10:59;7.80;;;6.70;;
35757;SDS011;21879;50.110;18.900;2023-08-12T23:21:27;8.10;;;6.30;;
35757;SDS011;21879;50.110;18.900;2023-08-12T23:31:54;7.70;;;6.90;;
35757;SDS011;21879;50.110;18.900;2023-08-12T23:42:22;9.60;;;7.40;;
35757;SDS011;21879;50.110;18.900;2023-08-12T23:52:50;8.20;;;7.20;;
